CYVQ

Norman Wells Airport

Airport
ICAO code
CYVQ
Summary
ICAO Region
NAM
ICAO Territory
Location

Norman Wells, Northwest Territories,

Coordinates
65° 16' 55" N , 126° 48' 6" W
KCC
Airport BS
Non Avian Wildlife Hazards to Aircraft
Airport CFIT
Altimeter Temperature Error Correction
Airport GND
Aircraft Ground De/Anti Icing
Airport RE
Landing on Contaminated Runways
Metar
Observation
CYVQ 280500Z 30008KT 30SM -SN FEW050 BKN100 BKN210 M23/M26 A3075 RMK SC1AC4CI1 SLP425
Station
Norman Wells, N. W. T.
Date/Time
2022-11-28 05:00:00
Wind direction
300°
Wind speed
08 kts
Lowest cloud amount
few clouds
Temperature
-23°C
Dew point
-26°C
Humidity
76%
Weather condition
light snow

Description

Norman Wells Airport is a regional airport located in Norman Wells, Northwest Territories, Canada.

Climatology

Subarctic climate (Köppen climate classification Dfc) - long, usually very cold winters, and short, cool to mild summers.

Runways

Designator Length Width Surface Rops
9/27 1828 46 ASP No/No

Airport map

Aerial View

SKYbrary Partners:

Safety knowledge contributed by: